NAO YSSY-YLRE
Flight info
| Callsign | NAO |
|---|---|
| Flight time | 2h 54m |
| Altitude | 20000 |
| Route | RIC H530 VEXEV/N0316F220 H530 BAZZA DCT CV/N0319F200 W644 LRE |
| Aircraft | B350/L-SDFGRW/S |
Departure
| Time | 2026-05-04 03:11 |
|---|---|
| Airport | Sydney Kingsford Smith International Airport (YSSY) |
Arrival
| Time | 2026-05-04 06:05 |
|---|---|
| Airport | Longreach Airport (YLRE) |
| Time | Latitude | Longitude | Altitude | Speed | Heading |
|---|---|---|---|---|---|
| 2026-05-04 02:17 | -33.93409 | 151.18848 | 26 ft | 0 kts | 188° |
| 2026-05-04 03:01 | -33.93412 | 151.18847 | 26 ft | 3 kts | 188° |
| 2026-05-04 03:01 | -33.93418 | 151.18847 | 26 ft | 0 kts | 157° |
| 2026-05-04 03:01 | -33.93424 | 151.18850 | 26 ft | 6 kts | 156° |
| 2026-05-04 03:02 | -33.93498 | 151.18854 | 26 ft | 13 kts | 190° |
| 2026-05-04 03:02 | -33.93590 | 151.18821 | 26 ft | 14 kts | 232° |
| 2026-05-04 03:02 | -33.93616 | 151.18722 | 26 ft | 12 kts | 253° |
| 2026-05-04 03:02 | -33.93639 | 151.18628 | 26 ft | 11 kts | 255° |
| 2026-05-04 03:03 | -33.93659 | 151.18539 | 26 ft | 11 kts | 254° |
| 2026-05-04 03:03 | -33.93679 | 151.18455 | 26 ft | 10 kts | 252° |
| 2026-05-04 03:03 | -33.93697 | 151.18376 | 26 ft | 9 kts | 253° |
| 2026-05-04 03:03 | -33.93716 | 151.18301 | 26 ft | 9 kts | 253° |
| 2026-05-04 03:04 | -33.93746 | 151.18242 | 26 ft | 7 kts | 204° |
| 2026-05-04 03:04 | -33.93791 | 151.18245 | 26 ft | 7 kts | 161° |
| 2026-05-04 03:04 | -33.93841 | 151.18264 | 26 ft | 9 kts | 164° |
| 2026-05-04 03:04 | -33.93906 | 151.18285 | 25 ft | 10 kts | 165° |
| 2026-05-04 03:05 | -33.93978 | 151.18309 | 26 ft | 11 kts | 163° |
| 2026-05-04 03:05 | -33.94054 | 151.18329 | 27 ft | 11 kts | 195° |
| 2026-05-04 03:05 | -33.94091 | 151.18261 | 26 ft | 9 kts | 253° |
| 2026-05-04 03:05 | -33.94108 | 151.18188 | 29 ft | 9 kts | 254° |
| 2026-05-04 03:06 | -33.94125 | 151.18114 | 26 ft | 9 kts | 253° |
| 2026-05-04 03:06 | -33.94143 | 151.18039 | 29 ft | 9 kts | 254° |
| 2026-05-04 03:06 | -33.94161 | 151.17965 | 26 ft | 9 kts | 254° |
| 2026-05-04 03:06 | -33.94179 | 151.17891 | 26 ft | 9 kts | 253° |
| 2026-05-04 03:07 | -33.94197 | 151.17816 | 26 ft | 9 kts | 252° |
| 2026-05-04 03:07 | -33.94215 | 151.17739 | 27 ft | 10 kts | 254° |
| 2026-05-04 03:07 | -33.94234 | 151.17661 | 25 ft | 9 kts | 253° |
| 2026-05-04 03:07 | -33.94237 | 151.17646 | 25 ft | 0 kts | 255° |
| 2026-05-04 03:09 | -33.94256 | 151.17569 | 26 ft | 15 kts | 254° |
| 2026-05-04 03:10 | -33.94243 | 151.17501 | 26 ft | 5 kts | 326° |
| 2026-05-04 03:10 | -33.94232 | 151.17496 | 26 ft | 0 kts | 344° |
| 2026-05-04 03:10 | -33.93993 | 151.17431 | 23 ft | 76 kts | 348° |
| 2026-05-04 03:10 | -33.93303 | 151.17253 | 180 ft | 114 kts | 347° |
| 2026-05-04 03:11 | -33.92492 | 151.17025 | 749 ft | 121 kts | 343° |
| 2026-05-04 03:11 | -33.91837 | 151.16378 | 1314 ft | 138 kts | 291° |
| 2026-05-04 03:11 | -33.91960 | 151.15174 | 1814 ft | 160 kts | 245° |
| 2026-05-04 03:11 | -33.92561 | 151.13981 | 2302 ft | 172 kts | 243° |
| 2026-05-04 03:12 | -33.93229 | 151.12741 | 2786 ft | 180 kts | 242° |
| 2026-05-04 03:12 | -33.93926 | 151.11407 | 2980 ft | 200 kts | 252° |
| 2026-05-04 03:12 | -33.94052 | 151.09734 | 3141 ft | 207 kts | 289° |
| 2026-05-04 03:12 | -33.93450 | 151.08154 | 3425 ft | 209 kts | 304° |
| 2026-05-04 03:13 | -33.92392 | 151.06976 | 3714 ft | 209 kts | 327° |
| 2026-05-04 03:13 | -33.91226 | 151.05951 | 4081 ft | 205 kts | 321° |
| 2026-05-04 03:13 | -33.90123 | 151.04898 | 4484 ft | 201 kts | 322° |
| 2026-05-04 03:13 | -33.89010 | 151.03900 | 4888 ft | 198 kts | 323° |
| 2026-05-04 03:14 | -33.87907 | 151.02913 | 5282 ft | 197 kts | 323° |
| 2026-05-04 03:14 | -33.86802 | 151.01923 | 5675 ft | 198 kts | 323° |
| 2026-05-04 03:14 | -33.85716 | 151.00944 | 6064 ft | 198 kts | 323° |
| 2026-05-04 03:14 | -33.84611 | 150.99952 | 6467 ft | 198 kts | 324° |
| 2026-05-04 03:15 | -33.83502 | 150.98955 | 6848 ft | 200 kts | 323° |
| 2026-05-04 03:15 | -33.82384 | 150.97952 | 7230 ft | 200 kts | 323° |
| 2026-05-04 03:15 | -33.81262 | 150.96943 | 7611 ft | 203 kts | 323° |
| 2026-05-04 03:15 | -33.80124 | 150.95921 | 8004 ft | 205 kts | 323° |
| 2026-05-04 03:16 | -33.78975 | 150.94891 | 8401 ft | 207 kts | 323° |
| 2026-05-04 03:16 | -33.77814 | 150.93850 | 8809 ft | 209 kts | 323° |
| 2026-05-04 03:16 | -33.76650 | 150.92806 | 9211 ft | 208 kts | 323° |
| 2026-05-04 03:16 | -33.75506 | 150.91779 | 9621 ft | 207 kts | 323° |
| 2026-05-04 03:17 | -33.74337 | 150.90733 | 10038 ft | 206 kts | 322° |
| 2026-05-04 03:17 | -33.73201 | 150.89716 | 10408 ft | 206 kts | 322° |
| 2026-05-04 03:17 | -33.72048 | 150.88683 | 10792 ft | 207 kts | 322° |
| 2026-05-04 03:17 | -33.70894 | 150.87649 | 11180 ft | 207 kts | 323° |
| 2026-05-04 03:18 | -33.69735 | 150.86612 | 11570 ft | 208 kts | 323° |
| 2026-05-04 03:18 | -33.68577 | 150.85576 | 11966 ft | 208 kts | 323° |
| 2026-05-04 03:18 | -33.67421 | 150.84542 | 12364 ft | 207 kts | 323° |
| 2026-05-04 03:18 | -33.66265 | 150.83509 | 12768 ft | 207 kts | 323° |
| 2026-05-04 03:19 | -33.65107 | 150.82475 | 13177 ft | 208 kts | 323° |
| 2026-05-04 03:19 | -33.63948 | 150.81439 | 13587 ft | 208 kts | 323° |
| 2026-05-04 03:19 | -33.62786 | 150.80401 | 13990 ft | 208 kts | 323° |
| 2026-05-04 03:19 | -33.61624 | 150.79364 | 14361 ft | 208 kts | 323° |
| 2026-05-04 03:20 | -33.60460 | 150.78325 | 14725 ft | 209 kts | 323° |
| 2026-05-04 03:20 | -33.59327 | 150.77244 | 15112 ft | 208 kts | 316° |
| 2026-05-04 03:20 | -33.58295 | 150.76027 | 15497 ft | 208 kts | 315° |
| 2026-05-04 03:20 | -33.57263 | 150.74816 | 15882 ft | 207 kts | 316° |
| 2026-05-04 03:21 | -33.56227 | 150.73614 | 16271 ft | 207 kts | 316° |
| 2026-05-04 03:21 | -33.55194 | 150.72418 | 16669 ft | 206 kts | 316° |
| 2026-05-04 03:21 | -33.54166 | 150.71227 | 17068 ft | 205 kts | 316° |
| 2026-05-04 03:21 | -33.53142 | 150.70040 | 17478 ft | 204 kts | 316° |
| 2026-05-04 03:22 | -33.52117 | 150.68853 | 17834 ft | 205 kts | 316° |
| 2026-05-04 03:22 | -33.51089 | 150.67662 | 18196 ft | 206 kts | 316° |
| 2026-05-04 03:22 | -33.50057 | 150.66467 | 18533 ft | 207 kts | 316° |
| 2026-05-04 03:22 | -33.49035 | 150.65284 | 18843 ft | 207 kts | 316° |
| 2026-05-04 03:23 | -33.48003 | 150.64088 | 19166 ft | 207 kts | 316° |
| 2026-05-04 03:23 | -33.46970 | 150.62895 | 19488 ft | 206 kts | 316° |
| 2026-05-04 03:23 | -33.45937 | 150.61700 | 19819 ft | 206 kts | 316° |
| 2026-05-04 03:23 | -33.45254 | 150.60911 | 20015 ft | 207 kts | 316° |
| 2026-05-04 03:24 | -33.44178 | 150.59668 | 20039 ft | 223 kts | 316° |
| 2026-05-04 03:24 | -33.43027 | 150.58339 | 20035 ft | 236 kts | 315° |
| 2026-05-04 03:24 | -33.41817 | 150.56940 | 20046 ft | 247 kts | 315° |
| 2026-05-04 03:24 | -33.40562 | 150.55490 | 20036 ft | 255 kts | 315° |
| 2026-05-04 03:25 | -33.39270 | 150.54001 | 20036 ft | 261 kts | 315° |
| 2026-05-04 03:25 | -33.37949 | 150.52478 | 20035 ft | 266 kts | 315° |
| 2026-05-04 03:25 | -33.36611 | 150.50933 | 20031 ft | 269 kts | 315° |
| 2026-05-04 03:25 | -33.35258 | 150.49377 | 20025 ft | 271 kts | 315° |
| 2026-05-04 03:26 | -33.33896 | 150.47807 | 20024 ft | 273 kts | 315° |
| 2026-05-04 03:26 | -33.32523 | 150.46228 | 20024 ft | 274 kts | 315° |
| 2026-05-04 03:26 | -33.31149 | 150.44646 | 20023 ft | 275 kts | 315° |
| 2026-05-04 03:26 | -33.29769 | 150.43058 | 20029 ft | 275 kts | 315° |
| 2026-05-04 03:27 | -33.28386 | 150.41470 | 20025 ft | 276 kts | 315° |
| 2026-05-04 03:27 | -33.26999 | 150.39875 | 19968 ft | 278 kts | 315° |
| 2026-05-04 03:27 | -33.25593 | 150.38261 | 19856 ft | 282 kts | 315° |
| 2026-05-04 03:27 | -33.24172 | 150.36627 | 19745 ft | 285 kts | 315° |
| 2026-05-04 03:28 | -33.22733 | 150.34981 | 19633 ft | 287 kts | 315° |
| 2026-05-04 03:28 | -33.21287 | 150.33318 | 19514 ft | 288 kts | 315° |
| 2026-05-04 03:28 | -33.19839 | 150.31653 | 19403 ft | 290 kts | 315° |
| 2026-05-04 03:28 | -33.18380 | 150.29989 | 19296 ft | 290 kts | 315° |
| 2026-05-04 03:29 | -33.16931 | 150.28333 | 19176 ft | 287 kts | 315° |
| 2026-05-04 03:29 | -33.15521 | 150.26717 | 19062 ft | 283 kts | 315° |
| 2026-05-04 03:29 | -33.14103 | 150.25093 | 18944 ft | 281 kts | 316° |
| 2026-05-04 03:29 | -33.12690 | 150.23477 | 18834 ft | 281 kts | 315° |
| 2026-05-04 03:30 | -33.11279 | 150.21862 | 18721 ft | 281 kts | 316° |
| 2026-05-04 03:30 | -33.09866 | 150.20250 | 18605 ft | 281 kts | 315° |
| 2026-05-04 03:30 | -33.08456 | 150.18638 | 18488 ft | 281 kts | 315° |
| 2026-05-04 03:30 | -33.07050 | 150.17033 | 18378 ft | 280 kts | 316° |
| 2026-05-04 03:31 | -33.05639 | 150.15424 | 18254 ft | 280 kts | 315° |
| 2026-05-04 03:31 | -33.04228 | 150.13816 | 18121 ft | 280 kts | 315° |
| 2026-05-04 03:31 | -33.02822 | 150.12213 | 18031 ft | 278 kts | 315° |
| 2026-05-04 03:31 | -33.01431 | 150.10628 | 18031 ft | 275 kts | 315° |
| 2026-05-04 03:32 | -33.00056 | 150.09063 | 18028 ft | 272 kts | 315° |
| 2026-05-04 03:32 | -32.98697 | 150.07515 | 18033 ft | 270 kts | 315° |
| 2026-05-04 03:32 | -32.97343 | 150.05975 | 18026 ft | 268 kts | 315° |
| 2026-05-04 03:32 | -32.95998 | 150.04444 | 18019 ft | 267 kts | 315° |
| 2026-05-04 03:33 | -32.94654 | 150.02918 | 18027 ft | 266 kts | 315° |
| 2026-05-04 03:33 | -32.93317 | 150.01396 | 18021 ft | 266 kts | 315° |
| 2026-05-04 03:33 | -32.91981 | 149.99882 | 18022 ft | 265 kts | 315° |
| 2026-05-04 03:33 | -32.90665 | 149.98388 | 18022 ft | 265 kts | 315° |
| 2026-05-04 03:34 | -32.89331 | 149.96873 | 18016 ft | 265 kts | 315° |
| 2026-05-04 03:34 | -32.88000 | 149.95363 | 18018 ft | 264 kts | 315° |
| 2026-05-04 03:34 | -32.86665 | 149.93851 | 18020 ft | 264 kts | 315° |
| 2026-05-04 03:34 | -32.85338 | 149.92346 | 18015 ft | 264 kts | 315° |
| 2026-05-04 03:35 | -32.84008 | 149.90840 | 18016 ft | 264 kts | 315° |
| 2026-05-04 03:35 | -32.82681 | 149.89336 | 18016 ft | 264 kts | 315° |
| 2026-05-04 03:35 | -32.81351 | 149.87832 | 18019 ft | 263 kts | 315° |
| 2026-05-04 03:35 | -32.80024 | 149.86331 | 18019 ft | 263 kts | 315° |
| 2026-05-04 03:36 | -32.78698 | 149.84832 | 18017 ft | 263 kts | 315° |
| 2026-05-04 03:36 | -32.77371 | 149.83331 | 18016 ft | 263 kts | 315° |
| 2026-05-04 03:36 | -32.76049 | 149.81840 | 18012 ft | 262 kts | 315° |
| 2026-05-04 03:36 | -32.74745 | 149.80366 | 18019 ft | 262 kts | 315° |
| 2026-05-04 03:37 | -32.73407 | 149.78855 | 18017 ft | 262 kts | 315° |
| 2026-05-04 03:37 | -32.72106 | 149.77386 | 18020 ft | 262 kts | 315° |
| 2026-05-04 03:37 | -32.70783 | 149.75896 | 18017 ft | 262 kts | 315° |
| 2026-05-04 03:37 | -32.69462 | 149.74407 | 18017 ft | 262 kts | 315° |
| 2026-05-04 03:38 | -32.68139 | 149.72914 | 18019 ft | 261 kts | 315° |
| 2026-05-04 03:38 | -32.66816 | 149.71426 | 18020 ft | 262 kts | 315° |
| 2026-05-04 03:38 | -32.65495 | 149.69939 | 18021 ft | 262 kts | 315° |
| 2026-05-04 03:38 | -32.64174 | 149.68448 | 18027 ft | 262 kts | 315° |
| 2026-05-04 03:39 | -32.62847 | 149.66959 | 18021 ft | 263 kts | 315° |
| 2026-05-04 03:39 | -32.61523 | 149.65471 | 18012 ft | 262 kts | 315° |
| 2026-05-04 03:39 | -32.60203 | 149.63985 | 18020 ft | 261 kts | 315° |
| 2026-05-04 03:39 | -32.58884 | 149.62505 | 18021 ft | 261 kts | 315° |
| 2026-05-04 03:40 | -32.57567 | 149.61025 | 18019 ft | 261 kts | 315° |
| 2026-05-04 03:40 | -32.56251 | 149.59544 | 18020 ft | 260 kts | 314° |
| 2026-05-04 03:40 | -32.55068 | 149.57926 | 18023 ft | 260 kts | 308° |
| 2026-05-04 03:40 | -32.53960 | 149.56272 | 18031 ft | 259 kts | 308° |
| 2026-05-04 03:41 | -32.52823 | 149.54613 | 18024 ft | 259 kts | 309° |
| 2026-05-04 03:41 | -32.51675 | 149.52960 | 18023 ft | 259 kts | 309° |
| 2026-05-04 03:41 | -32.50531 | 149.51303 | 18032 ft | 259 kts | 309° |
| 2026-05-04 03:41 | -32.49391 | 149.49652 | 18026 ft | 259 kts | 309° |
| 2026-05-04 03:42 | -32.48249 | 149.47997 | 18026 ft | 259 kts | 308° |
| 2026-05-04 03:42 | -32.47106 | 149.46342 | 18031 ft | 259 kts | 309° |
| 2026-05-04 03:42 | -32.45965 | 149.44691 | 18028 ft | 259 kts | 309° |
| 2026-05-04 03:42 | -32.44822 | 149.43038 | 18024 ft | 259 kts | 309° |
| 2026-05-04 03:43 | -32.43680 | 149.41389 | 18022 ft | 259 kts | 308° |
| 2026-05-04 03:43 | -32.42555 | 149.39764 | 18023 ft | 259 kts | 309° |
| 2026-05-04 03:43 | -32.41413 | 149.38111 | 18026 ft | 259 kts | 309° |
| 2026-05-04 03:43 | -32.40272 | 149.36467 | 18033 ft | 259 kts | 309° |
| 2026-05-04 03:44 | -32.39130 | 149.34817 | 18028 ft | 259 kts | 309° |
| 2026-05-04 03:44 | -32.38003 | 149.33193 | 18030 ft | 258 kts | 309° |
| 2026-05-04 03:44 | -32.36849 | 149.31528 | 18026 ft | 258 kts | 309° |
| 2026-05-04 03:44 | -32.35710 | 149.29888 | 18024 ft | 258 kts | 309° |
| 2026-05-04 03:45 | -32.34586 | 149.28268 | 18027 ft | 258 kts | 309° |
| 2026-05-04 03:45 | -32.33447 | 149.26628 | 18028 ft | 258 kts | 309° |
| 2026-05-04 03:45 | -32.32292 | 149.24966 | 18028 ft | 258 kts | 309° |
| 2026-05-04 03:45 | -32.31167 | 149.23348 | 18031 ft | 258 kts | 309° |
| 2026-05-04 03:46 | -32.30024 | 149.21705 | 18032 ft | 258 kts | 309° |
| 2026-05-04 03:46 | -32.28884 | 149.20065 | 18029 ft | 258 kts | 309° |
| 2026-05-04 03:46 | -32.27743 | 149.18427 | 18031 ft | 258 kts | 309° |
| 2026-05-04 03:46 | -32.26603 | 149.16789 | 18029 ft | 258 kts | 309° |
| 2026-05-04 03:47 | -32.25465 | 149.15155 | 18032 ft | 258 kts | 309° |
| 2026-05-04 03:47 | -32.24323 | 149.13517 | 18030 ft | 258 kts | 309° |
| 2026-05-04 03:47 | -32.23184 | 149.11884 | 18030 ft | 258 kts | 309° |
| 2026-05-04 03:47 | -32.22040 | 149.10244 | 18037 ft | 258 kts | 309° |
| 2026-05-04 03:48 | -32.20900 | 149.08610 | 18033 ft | 258 kts | 309° |
| 2026-05-04 03:48 | -32.19776 | 149.06999 | 18031 ft | 258 kts | 309° |
| 2026-05-04 03:48 | -32.18634 | 149.05366 | 18028 ft | 258 kts | 309° |
| 2026-05-04 03:48 | -32.17494 | 149.03734 | 18028 ft | 258 kts | 309° |
| 2026-05-04 03:49 | -32.16352 | 149.02103 | 18029 ft | 258 kts | 309° |
| 2026-05-04 03:49 | -32.15214 | 149.00472 | 18031 ft | 257 kts | 309° |
| 2026-05-04 03:49 | -32.14073 | 148.98842 | 18030 ft | 258 kts | 309° |
| 2026-05-04 03:49 | -32.12932 | 148.97215 | 18033 ft | 257 kts | 309° |
| 2026-05-04 03:50 | -32.11791 | 148.95585 | 18030 ft | 257 kts | 309° |
| 2026-05-04 03:50 | -32.10652 | 148.93958 | 18037 ft | 257 kts | 309° |
| 2026-05-04 03:50 | -32.09510 | 148.92329 | 18030 ft | 257 kts | 309° |
| 2026-05-04 03:50 | -32.08369 | 148.90704 | 18032 ft | 257 kts | 309° |
| 2026-05-04 03:51 | -32.07226 | 148.89074 | 18028 ft | 257 kts | 309° |
| 2026-05-04 03:51 | -32.06032 | 148.87513 | 18031 ft | 256 kts | 317° |
| 2026-05-04 03:51 | -32.04580 | 148.86315 | 18031 ft | 254 kts | 325° |
| 2026-05-04 03:51 | -32.03088 | 148.85214 | 18027 ft | 252 kts | 324° |
| 2026-05-04 03:52 | -32.01619 | 148.84086 | 18023 ft | 251 kts | 323° |
| 2026-05-04 03:52 | -32.00167 | 148.82959 | 18023 ft | 250 kts | 324° |
| 2026-05-04 03:52 | -31.98716 | 148.81838 | 18021 ft | 249 kts | 324° |
| 2026-05-04 03:52 | -31.97268 | 148.80721 | 18020 ft | 249 kts | 324° |
| 2026-05-04 03:53 | -31.95839 | 148.79622 | 18015 ft | 248 kts | 324° |
| 2026-05-04 03:53 | -31.94394 | 148.78508 | 18012 ft | 248 kts | 324° |
| 2026-05-04 03:53 | -31.92953 | 148.77399 | 18012 ft | 247 kts | 324° |
| 2026-05-04 03:53 | -31.91513 | 148.76290 | 18010 ft | 247 kts | 324° |
| 2026-05-04 03:54 | -31.90075 | 148.75184 | 18010 ft | 246 kts | 324° |
| 2026-05-04 03:54 | -31.88640 | 148.74081 | 18010 ft | 246 kts | 324° |
| 2026-05-04 03:54 | -31.87207 | 148.72978 | 18011 ft | 246 kts | 324° |
| 2026-05-04 03:54 | -31.85773 | 148.71877 | 18009 ft | 246 kts | 324° |
| 2026-05-04 03:55 | -31.84341 | 148.70777 | 18009 ft | 246 kts | 324° |
| 2026-05-04 03:55 | -31.82926 | 148.69690 | 18007 ft | 246 kts | 324° |
| 2026-05-04 03:55 | -31.81493 | 148.68590 | 18003 ft | 246 kts | 324° |
| 2026-05-04 03:55 | -31.80060 | 148.67491 | 18006 ft | 246 kts | 324° |
| 2026-05-04 03:56 | -31.78628 | 148.66392 | 18005 ft | 246 kts | 324° |
| 2026-05-04 03:56 | -31.77197 | 148.65295 | 18005 ft | 246 kts | 324° |
| 2026-05-04 03:56 | -31.75765 | 148.64197 | 18007 ft | 246 kts | 324° |
| 2026-05-04 03:56 | -31.74334 | 148.63102 | 18005 ft | 246 kts | 324° |
| 2026-05-04 03:57 | -31.72902 | 148.62004 | 18003 ft | 246 kts | 324° |
| 2026-05-04 03:57 | -31.71469 | 148.60908 | 18001 ft | 246 kts | 324° |
| 2026-05-04 03:57 | -31.70037 | 148.59811 | 18002 ft | 246 kts | 324° |
| 2026-05-04 03:57 | -31.68604 | 148.58716 | 18005 ft | 246 kts | 324° |
| 2026-05-04 03:58 | -31.65738 | 148.56525 | 18000 ft | 246 kts | 324° |
| 2026-05-04 03:58 | -31.64301 | 148.55425 | 17998 ft | 246 kts | 324° |
| 2026-05-04 03:58 | -31.62865 | 148.54329 | 18004 ft | 246 kts | 324° |
| 2026-05-04 03:59 | -31.61433 | 148.53235 | 18000 ft | 246 kts | 324° |
| 2026-05-04 03:59 | -31.59999 | 148.52141 | 18003 ft | 246 kts | 324° |
| 2026-05-04 03:59 | -31.58567 | 148.51049 | 18002 ft | 246 kts | 324° |
| 2026-05-04 03:59 | -31.57134 | 148.49955 | 18000 ft | 246 kts | 324° |
| 2026-05-04 04:00 | -31.55720 | 148.48877 | 18000 ft | 246 kts | 324° |
| 2026-05-04 04:00 | -31.54286 | 148.47784 | 17999 ft | 246 kts | 324° |
| 2026-05-04 04:00 | -31.52849 | 148.46690 | 18005 ft | 246 kts | 324° |
| 2026-05-04 04:00 | -31.51414 | 148.45596 | 18004 ft | 246 kts | 324° |
| 2026-05-04 04:01 | -31.49979 | 148.44504 | 18003 ft | 246 kts | 324° |
| 2026-05-04 04:01 | -31.48540 | 148.43409 | 17999 ft | 246 kts | 324° |
| 2026-05-04 04:01 | -31.47103 | 148.42315 | 18001 ft | 246 kts | 324° |
| 2026-05-04 04:01 | -31.45666 | 148.41223 | 18002 ft | 246 kts | 324° |
| 2026-05-04 04:02 | -31.44248 | 148.40146 | 18002 ft | 246 kts | 324° |
| 2026-05-04 04:02 | -31.42812 | 148.39055 | 17999 ft | 246 kts | 324° |
| 2026-05-04 04:02 | -31.41373 | 148.37961 | 17999 ft | 246 kts | 324° |
| 2026-05-04 04:02 | -31.39935 | 148.36868 | 18004 ft | 246 kts | 324° |
| 2026-05-04 04:03 | -31.38495 | 148.35776 | 18006 ft | 247 kts | 324° |
| 2026-05-04 04:03 | -31.37057 | 148.34684 | 18013 ft | 247 kts | 324° |
| 2026-05-04 04:03 | -31.35617 | 148.33592 | 18005 ft | 247 kts | 324° |
| 2026-05-04 04:03 | -31.34180 | 148.32502 | 18007 ft | 247 kts | 324° |
| 2026-05-04 04:04 | -31.32734 | 148.31407 | 18007 ft | 247 kts | 324° |
| 2026-05-04 04:04 | -31.31292 | 148.30314 | 18008 ft | 247 kts | 324° |
| 2026-05-04 04:04 | -31.29850 | 148.29222 | 18015 ft | 247 kts | 324° |
| 2026-05-04 04:04 | -31.28409 | 148.28131 | 18012 ft | 247 kts | 324° |
| 2026-05-04 04:05 | -31.26968 | 148.27040 | 18007 ft | 247 kts | 324° |
| 2026-05-04 04:05 | -31.25542 | 148.25962 | 18009 ft | 247 kts | 324° |
| 2026-05-04 04:05 | -31.24079 | 148.24856 | 18006 ft | 247 kts | 324° |
| 2026-05-04 04:05 | -31.22652 | 148.23778 | 18007 ft | 248 kts | 324° |
| 2026-05-04 04:06 | -31.21206 | 148.22684 | 18008 ft | 248 kts | 324° |
| 2026-05-04 04:06 | -31.19754 | 148.21589 | 18003 ft | 248 kts | 324° |
| 2026-05-04 04:06 | -31.18307 | 148.20495 | 18003 ft | 248 kts | 324° |
| 2026-05-04 04:06 | -31.16856 | 148.19400 | 18009 ft | 248 kts | 324° |
| 2026-05-04 04:07 | -31.15405 | 148.18305 | 18009 ft | 248 kts | 324° |
| 2026-05-04 04:07 | -31.13951 | 148.17210 | 18010 ft | 248 kts | 324° |
| 2026-05-04 04:07 | -31.12499 | 148.16114 | 18006 ft | 249 kts | 324° |
| 2026-05-04 04:07 | -31.11045 | 148.15019 | 18011 ft | 249 kts | 324° |
| 2026-05-04 04:08 | -31.09606 | 148.13934 | 18009 ft | 249 kts | 324° |
| 2026-05-04 04:08 | -31.08144 | 148.12833 | 18008 ft | 252 kts | 324° |
| 2026-05-04 04:08 | -31.06663 | 148.11716 | 18012 ft | 255 kts | 324° |
| 2026-05-04 04:08 | -31.05165 | 148.10591 | 18013 ft | 257 kts | 324° |
| 2026-05-04 04:09 | -31.03657 | 148.09456 | 18012 ft | 258 kts | 324° |
| 2026-05-04 04:09 | -31.02140 | 148.08316 | 18014 ft | 260 kts | 324° |
| 2026-05-04 04:09 | -31.00619 | 148.07171 | 18013 ft | 261 kts | 324° |
| 2026-05-04 04:09 | -30.99093 | 148.06026 | 18014 ft | 261 kts | 324° |
| 2026-05-04 04:10 | -30.97561 | 148.04875 | 18018 ft | 262 kts | 324° |
| 2026-05-04 04:10 | -30.96025 | 148.03722 | 18020 ft | 263 kts | 324° |
| 2026-05-04 04:10 | -30.94489 | 148.02569 | 18018 ft | 263 kts | 324° |
| 2026-05-04 04:10 | -30.92951 | 148.01416 | 18018 ft | 263 kts | 324° |
| 2026-05-04 04:11 | -30.91932 | 148.00651 | 18019 ft | 263 kts | 324° |
| 2026-05-04 04:11 | -30.89891 | 147.99122 | 18019 ft | 263 kts | 324° |
| 2026-05-04 04:11 | -30.88350 | 147.97965 | 18017 ft | 263 kts | 324° |
| 2026-05-04 04:11 | -30.86808 | 147.96813 | 18020 ft | 264 kts | 324° |
| 2026-05-04 04:12 | -30.85765 | 147.96031 | 18018 ft | 264 kts | 324° |
| 2026-05-04 04:12 | -30.84241 | 147.94890 | 18018 ft | 264 kts | 324° |
| 2026-05-04 04:12 | -30.82697 | 147.93734 | 18016 ft | 264 kts | 324° |
| 2026-05-04 04:12 | -30.81153 | 147.92580 | 18016 ft | 264 kts | 324° |
| 2026-05-04 04:13 | -30.79608 | 147.91424 | 18016 ft | 264 kts | 324° |
| 2026-05-04 04:13 | -30.78064 | 147.90267 | 18017 ft | 264 kts | 324° |
| 2026-05-04 04:13 | -30.76515 | 147.89113 | 18016 ft | 264 kts | 324° |
| 2026-05-04 04:13 | -30.74968 | 147.87958 | 18016 ft | 264 kts | 324° |
| 2026-05-04 04:14 | -30.73423 | 147.86805 | 18016 ft | 264 kts | 324° |
| 2026-05-04 04:14 | -30.71875 | 147.85648 | 18014 ft | 264 kts | 324° |
| 2026-05-04 04:14 | -30.70325 | 147.84493 | 18015 ft | 265 kts | 324° |
| 2026-05-04 04:14 | -30.68775 | 147.83337 | 18014 ft | 265 kts | 324° |
| 2026-05-04 04:15 | -30.67223 | 147.82181 | 18016 ft | 265 kts | 324° |
| 2026-05-04 04:15 | -30.65691 | 147.81039 | 18014 ft | 265 kts | 324° |
| 2026-05-04 04:15 | -30.64138 | 147.79883 | 18011 ft | 265 kts | 324° |
| 2026-05-04 04:15 | -30.62589 | 147.78729 | 18011 ft | 265 kts | 324° |
| 2026-05-04 04:16 | -30.61036 | 147.77574 | 18009 ft | 265 kts | 324° |
| 2026-05-04 04:16 | -30.59485 | 147.76419 | 18012 ft | 265 kts | 324° |
| 2026-05-04 04:16 | -30.57931 | 147.75264 | 18011 ft | 265 kts | 324° |
| 2026-05-04 04:16 | -30.56375 | 147.74107 | 18011 ft | 265 kts | 324° |
| 2026-05-04 04:17 | -30.54821 | 147.72953 | 18013 ft | 265 kts | 324° |
| 2026-05-04 04:17 | -30.53266 | 147.71797 | 18013 ft | 265 kts | 324° |
| 2026-05-04 04:17 | -30.51707 | 147.70640 | 18010 ft | 265 kts | 324° |
| 2026-05-04 04:17 | -30.50150 | 147.69484 | 18012 ft | 265 kts | 324° |
| 2026-05-04 04:18 | -30.48595 | 147.68331 | 18012 ft | 266 kts | 324° |
| 2026-05-04 04:18 | -30.47033 | 147.67172 | 18010 ft | 266 kts | 324° |
| 2026-05-04 04:18 | -30.45494 | 147.66031 | 18009 ft | 266 kts | 324° |
| 2026-05-04 04:18 | -30.43936 | 147.64878 | 18013 ft | 266 kts | 324° |
| 2026-05-04 04:19 | -30.42375 | 147.63721 | 18017 ft | 266 kts | 324° |
| 2026-05-04 04:19 | -30.40815 | 147.62567 | 18012 ft | 266 kts | 324° |
| 2026-05-04 04:19 | -30.39254 | 147.61410 | 18009 ft | 266 kts | 324° |
| 2026-05-04 04:19 | -30.37693 | 147.60256 | 18013 ft | 266 kts | 324° |
| 2026-05-04 04:20 | -30.36133 | 147.59101 | 18013 ft | 266 kts | 324° |
| 2026-05-04 04:20 | -30.34574 | 147.57950 | 18013 ft | 266 kts | 324° |
| 2026-05-04 04:20 | -30.33016 | 147.56798 | 18015 ft | 266 kts | 324° |
| 2026-05-04 04:20 | -30.31454 | 147.55645 | 18012 ft | 266 kts | 324° |
| 2026-05-04 04:21 | -30.29893 | 147.54492 | 18014 ft | 266 kts | 324° |
| 2026-05-04 04:21 | -30.28296 | 147.53402 | 18019 ft | 267 kts | 330° |
| 2026-05-04 04:21 | -30.26615 | 147.52479 | 18015 ft | 268 kts | 332° |
| 2026-05-04 04:21 | -30.24949 | 147.51572 | 18014 ft | 268 kts | 331° |
| 2026-05-04 04:22 | -30.23250 | 147.50618 | 18015 ft | 268 kts | 330° |
| 2026-05-04 04:22 | -30.21596 | 147.49688 | 18012 ft | 267 kts | 330° |
| 2026-05-04 04:22 | -30.19921 | 147.48752 | 18015 ft | 268 kts | 330° |
| 2026-05-04 04:22 | -30.18242 | 147.47816 | 18020 ft | 268 kts | 331° |
| 2026-05-04 04:23 | -30.16564 | 147.46878 | 18020 ft | 268 kts | 330° |
| 2026-05-04 04:23 | -30.14886 | 147.45943 | 18018 ft | 268 kts | 331° |
| 2026-05-04 04:23 | -30.13207 | 147.45005 | 18017 ft | 268 kts | 331° |
| 2026-05-04 04:23 | -30.11525 | 147.44068 | 18018 ft | 268 kts | 331° |
| 2026-05-04 04:24 | -30.09844 | 147.43130 | 18017 ft | 268 kts | 331° |
| 2026-05-04 04:24 | -30.08165 | 147.42195 | 18019 ft | 268 kts | 331° |
| 2026-05-04 04:24 | -30.06485 | 147.41259 | 18016 ft | 268 kts | 331° |
| 2026-05-04 04:24 | -30.04804 | 147.40324 | 18017 ft | 268 kts | 331° |
| 2026-05-04 04:25 | -30.03123 | 147.39387 | 18018 ft | 268 kts | 331° |
| 2026-05-04 04:25 | -30.01442 | 147.38453 | 18017 ft | 268 kts | 331° |
| 2026-05-04 04:25 | -29.99759 | 147.37516 | 18015 ft | 268 kts | 331° |
| 2026-05-04 04:25 | -29.98100 | 147.36595 | 18020 ft | 268 kts | 331° |
| 2026-05-04 04:26 | -29.96420 | 147.35660 | 18022 ft | 268 kts | 331° |
| 2026-05-04 04:26 | -29.94736 | 147.34725 | 18018 ft | 268 kts | 331° |
| 2026-05-04 04:26 | -29.93057 | 147.33792 | 18013 ft | 268 kts | 331° |
| 2026-05-04 04:26 | -29.91372 | 147.32858 | 18021 ft | 268 kts | 331° |
| 2026-05-04 04:27 | -29.89689 | 147.31922 | 18014 ft | 268 kts | 331° |
| 2026-05-04 04:27 | -29.88006 | 147.30990 | 18018 ft | 268 kts | 331° |
| 2026-05-04 04:27 | -29.86326 | 147.30058 | 18020 ft | 268 kts | 331° |
| 2026-05-04 04:27 | -29.84644 | 147.29126 | 18020 ft | 268 kts | 331° |
| 2026-05-04 04:28 | -29.82962 | 147.28194 | 18019 ft | 268 kts | 331° |
| 2026-05-04 04:28 | -29.81278 | 147.27261 | 18020 ft | 268 kts | 331° |
| 2026-05-04 04:28 | -29.79594 | 147.26329 | 18020 ft | 268 kts | 331° |
| 2026-05-04 04:28 | -29.77910 | 147.25397 | 18023 ft | 268 kts | 331° |
| 2026-05-04 04:29 | -29.76248 | 147.24477 | 18023 ft | 269 kts | 331° |
| 2026-05-04 04:29 | -29.74563 | 147.23546 | 18022 ft | 269 kts | 331° |
| 2026-05-04 04:29 | -29.72876 | 147.22613 | 18024 ft | 269 kts | 331° |
| 2026-05-04 04:29 | -29.71188 | 147.21680 | 18020 ft | 269 kts | 331° |
| 2026-05-04 04:30 | -29.69497 | 147.20746 | 18028 ft | 269 kts | 331° |
| 2026-05-04 04:30 | -29.67811 | 147.19815 | 18027 ft | 269 kts | 331° |
| 2026-05-04 04:30 | -29.66122 | 147.18883 | 18023 ft | 269 kts | 331° |
| 2026-05-04 04:30 | -29.64434 | 147.17951 | 18026 ft | 269 kts | 331° |
| 2026-05-04 04:31 | -29.62769 | 147.17033 | 18020 ft | 269 kts | 331° |
| 2026-05-04 04:31 | -29.61081 | 147.16102 | 18027 ft | 269 kts | 331° |
| 2026-05-04 04:31 | -29.59392 | 147.15171 | 18025 ft | 269 kts | 332° |
| 2026-05-04 04:31 | -29.57702 | 147.14239 | 18030 ft | 269 kts | 331° |
| 2026-05-04 04:32 | -29.56012 | 147.13310 | 18028 ft | 269 kts | 331° |
| 2026-05-04 04:32 | -29.54320 | 147.12377 | 18026 ft | 269 kts | 331° |
| 2026-05-04 04:32 | -29.52632 | 147.11449 | 18028 ft | 269 kts | 332° |
| 2026-05-04 04:32 | -29.50942 | 147.10519 | 18027 ft | 269 kts | 331° |
| 2026-05-04 04:33 | -29.49251 | 147.09590 | 18029 ft | 269 kts | 331° |
| 2026-05-04 04:33 | -29.47584 | 147.08672 | 18027 ft | 269 kts | 332° |
| 2026-05-04 04:33 | -29.45892 | 147.07743 | 18027 ft | 269 kts | 332° |
| 2026-05-04 04:33 | -29.44203 | 147.06815 | 18029 ft | 269 kts | 332° |
| 2026-05-04 04:34 | -29.42511 | 147.05886 | 18028 ft | 269 kts | 332° |
| 2026-05-04 04:34 | -29.40819 | 147.04958 | 18029 ft | 269 kts | 332° |
| 2026-05-04 04:34 | -29.39128 | 147.04029 | 18026 ft | 269 kts | 332° |
| 2026-05-04 04:34 | -29.37439 | 147.03103 | 18029 ft | 269 kts | 332° |
| 2026-05-04 04:35 | -29.35746 | 147.02174 | 18025 ft | 269 kts | 332° |
| 2026-05-04 04:35 | -29.34052 | 147.01247 | 18026 ft | 269 kts | 332° |
| 2026-05-04 04:35 | -29.32360 | 147.00318 | 18028 ft | 269 kts | 332° |
| 2026-05-04 04:35 | -29.30667 | 146.99392 | 18029 ft | 270 kts | 332° |
| 2026-05-04 04:36 | -29.28997 | 146.98478 | 18028 ft | 270 kts | 332° |
| 2026-05-04 04:36 | -29.27303 | 146.97550 | 18030 ft | 270 kts | 332° |
| 2026-05-04 04:36 | -29.25607 | 146.96623 | 18029 ft | 270 kts | 332° |
| 2026-05-04 04:36 | -29.23912 | 146.95696 | 18030 ft | 270 kts | 332° |
| 2026-05-04 04:37 | -29.18817 | 146.92912 | 18033 ft | 270 kts | 332° |
| 2026-05-04 04:37 | -29.17117 | 146.91984 | 18028 ft | 270 kts | 332° |
| 2026-05-04 04:38 | -29.15421 | 146.91058 | 18031 ft | 270 kts | 332° |
| 2026-05-04 04:38 | -29.13725 | 146.90132 | 18029 ft | 270 kts | 332° |
| 2026-05-04 04:38 | -29.12050 | 146.89219 | 18028 ft | 270 kts | 332° |
| 2026-05-04 04:38 | -29.10353 | 146.88294 | 18031 ft | 270 kts | 332° |
| 2026-05-04 04:39 | -29.08657 | 146.87370 | 18030 ft | 270 kts | 332° |
| 2026-05-04 04:39 | -29.06959 | 146.86444 | 18030 ft | 270 kts | 332° |
| 2026-05-04 04:39 | -29.05260 | 146.85519 | 18032 ft | 270 kts | 332° |
| 2026-05-04 04:39 | -29.03563 | 146.84595 | 18033 ft | 270 kts | 332° |
| 2026-05-04 04:40 | -29.01863 | 146.83670 | 18030 ft | 270 kts | 332° |
| 2026-05-04 04:40 | -29.00165 | 146.82746 | 18032 ft | 270 kts | 332° |
| 2026-05-04 04:40 | -28.98467 | 146.81823 | 18029 ft | 270 kts | 332° |
| 2026-05-04 04:40 | -28.96768 | 146.80899 | 18030 ft | 270 kts | 332° |
| 2026-05-04 04:41 | -28.95069 | 146.79976 | 18030 ft | 270 kts | 332° |
| 2026-05-04 04:41 | -28.93372 | 146.79054 | 18030 ft | 270 kts | 332° |
| 2026-05-04 04:41 | -28.91674 | 146.78132 | 18031 ft | 270 kts | 331° |
| 2026-05-04 04:41 | -28.89975 | 146.77210 | 18031 ft | 270 kts | 332° |
| 2026-05-04 04:42 | -28.88278 | 146.76289 | 18031 ft | 270 kts | 331° |
| 2026-05-04 04:42 | -28.86580 | 146.75368 | 18030 ft | 270 kts | 332° |
| 2026-05-04 04:42 | -28.84882 | 146.74447 | 18032 ft | 270 kts | 331° |
| 2026-05-04 04:42 | -28.83205 | 146.73539 | 18029 ft | 270 kts | 332° |
| 2026-05-04 04:43 | -28.81507 | 146.72618 | 18030 ft | 270 kts | 331° |
| 2026-05-04 04:43 | -28.79808 | 146.71698 | 18028 ft | 270 kts | 331° |
| 2026-05-04 04:43 | -28.78111 | 146.70778 | 18033 ft | 270 kts | 331° |
| 2026-05-04 04:43 | -28.76411 | 146.69859 | 18032 ft | 270 kts | 331° |
| 2026-05-04 04:44 | -28.74678 | 146.69022 | 18033 ft | 273 kts | 340° |
| 2026-05-04 04:44 | -28.72804 | 146.68603 | 18037 ft | 275 kts | 347° |
| 2026-05-04 04:44 | -28.70906 | 146.68285 | 18034 ft | 275 kts | 346° |
| 2026-05-04 04:44 | -28.69017 | 146.67928 | 18035 ft | 275 kts | 346° |
| 2026-05-04 04:45 | -28.67129 | 146.67552 | 18034 ft | 275 kts | 346° |
| 2026-05-04 04:45 | -28.65238 | 146.67184 | 18034 ft | 276 kts | 346° |
| 2026-05-04 04:45 | -28.63345 | 146.66818 | 18033 ft | 276 kts | 346° |
| 2026-05-04 04:47 | -28.51999 | 146.64628 | 18033 ft | 276 kts | 346° |
| 2026-05-04 04:47 | -28.50102 | 146.64262 | 18029 ft | 276 kts | 346° |
| 2026-05-04 04:47 | -28.48206 | 146.63897 | 18035 ft | 276 kts | 346° |
| 2026-05-04 04:47 | -28.46312 | 146.63531 | 18032 ft | 276 kts | 346° |
| 2026-05-04 04:48 | -28.44416 | 146.63167 | 18030 ft | 276 kts | 346° |
| 2026-05-04 04:49 | -28.36829 | 146.61706 | 18032 ft | 276 kts | 346° |
| 2026-05-04 04:49 | -28.34932 | 146.61341 | 18029 ft | 277 kts | 346° |
| 2026-05-04 04:49 | -28.33032 | 146.60976 | 18031 ft | 277 kts | 346° |
| 2026-05-04 04:49 | -28.31134 | 146.60611 | 18031 ft | 277 kts | 346° |
| 2026-05-04 04:50 | -28.29261 | 146.60251 | 18033 ft | 277 kts | 346° |
| 2026-05-04 04:50 | -28.27362 | 146.59886 | 18033 ft | 277 kts | 346° |
| 2026-05-04 04:50 | -28.25463 | 146.59522 | 18030 ft | 277 kts | 346° |
| 2026-05-04 04:50 | -28.23558 | 146.59156 | 18032 ft | 277 kts | 346° |
| 2026-05-04 04:51 | -28.21657 | 146.58791 | 18029 ft | 277 kts | 346° |
| 2026-05-04 04:51 | -28.19755 | 146.58427 | 18032 ft | 277 kts | 346° |
| 2026-05-04 04:51 | -28.17849 | 146.58061 | 18031 ft | 277 kts | 346° |
| 2026-05-04 04:51 | -28.15975 | 146.57702 | 18031 ft | 277 kts | 346° |
| 2026-05-04 04:52 | -28.14074 | 146.57338 | 18032 ft | 277 kts | 346° |
| 2026-05-04 04:52 | -28.12169 | 146.56973 | 18030 ft | 277 kts | 346° |
| 2026-05-04 04:52 | -28.10266 | 146.56608 | 18032 ft | 277 kts | 346° |
| 2026-05-04 04:52 | -28.08363 | 146.56245 | 18033 ft | 277 kts | 346° |
| 2026-05-04 04:53 | -28.06457 | 146.55880 | 18032 ft | 277 kts | 346° |
| 2026-05-04 04:53 | -28.04553 | 146.55517 | 18028 ft | 277 kts | 346° |
| 2026-05-04 04:53 | -28.02652 | 146.55153 | 18035 ft | 277 kts | 346° |
| 2026-05-04 04:53 | -28.00751 | 146.54790 | 18031 ft | 277 kts | 346° |
| 2026-05-04 04:54 | -27.98844 | 146.54425 | 18028 ft | 277 kts | 346° |
| 2026-05-04 04:54 | -27.96940 | 146.54062 | 18030 ft | 277 kts | 346° |
| 2026-05-04 04:54 | -27.95038 | 146.53699 | 18032 ft | 277 kts | 346° |
| 2026-05-04 04:54 | -27.93138 | 146.53335 | 18031 ft | 277 kts | 346° |
| 2026-05-04 04:55 | -27.91232 | 146.52973 | 18031 ft | 277 kts | 346° |
| 2026-05-04 04:55 | -27.89333 | 146.52610 | 18029 ft | 277 kts | 346° |
| 2026-05-04 04:55 | -27.87455 | 146.52253 | 18031 ft | 277 kts | 346° |
| 2026-05-04 04:55 | -27.85555 | 146.51890 | 18028 ft | 277 kts | 345° |
| 2026-05-04 04:56 | -27.83654 | 146.51529 | 18028 ft | 277 kts | 346° |
| 2026-05-04 04:56 | -27.81750 | 146.51165 | 18027 ft | 277 kts | 345° |
| 2026-05-04 04:56 | -27.79846 | 146.50804 | 18028 ft | 277 kts | 345° |
| 2026-05-04 04:56 | -27.77945 | 146.50441 | 18026 ft | 277 kts | 345° |
| 2026-05-04 04:57 | -27.76066 | 146.50085 | 18028 ft | 277 kts | 345° |
| 2026-05-04 04:57 | -27.74164 | 146.49722 | 18029 ft | 277 kts | 345° |
| 2026-05-04 04:57 | -27.72264 | 146.49362 | 18028 ft | 277 kts | 345° |
| 2026-05-04 04:57 | -27.70361 | 146.49000 | 18022 ft | 277 kts | 345° |
| 2026-05-04 04:58 | -27.68461 | 146.48639 | 18026 ft | 277 kts | 345° |
| 2026-05-04 04:58 | -27.66562 | 146.48278 | 18023 ft | 277 kts | 345° |
| 2026-05-04 04:58 | -27.64662 | 146.47919 | 18028 ft | 277 kts | 345° |
| 2026-05-04 04:58 | -27.62764 | 146.47557 | 18022 ft | 277 kts | 345° |
| 2026-05-04 04:59 | -27.60860 | 146.47197 | 18025 ft | 277 kts | 345° |
| 2026-05-04 04:59 | -27.58961 | 146.46836 | 18022 ft | 277 kts | 345° |
| 2026-05-04 04:59 | -27.57062 | 146.46477 | 18022 ft | 277 kts | 345° |
| 2026-05-04 04:59 | -27.55162 | 146.46116 | 18021 ft | 277 kts | 345° |
| 2026-05-04 05:00 | -27.53905 | 146.45879 | 18022 ft | 277 kts | 345° |
| 2026-05-04 05:00 | -27.52000 | 146.45518 | 18024 ft | 277 kts | 345° |
| 2026-05-04 05:00 | -27.48199 | 146.44798 | 18019 ft | 277 kts | 345° |
| 2026-05-04 05:01 | -27.45679 | 146.44322 | 18022 ft | 277 kts | 345° |
| 2026-05-04 05:01 | -27.44396 | 146.44079 | 18021 ft | 277 kts | 345° |
| 2026-05-04 05:01 | -27.42496 | 146.43720 | 18018 ft | 277 kts | 345° |
| 2026-05-04 05:01 | -27.40597 | 146.43361 | 18015 ft | 277 kts | 345° |
| 2026-05-04 05:02 | -27.38697 | 146.43003 | 18021 ft | 277 kts | 345° |
| 2026-05-04 05:02 | -27.36798 | 146.42643 | 18017 ft | 277 kts | 345° |
| 2026-05-04 05:02 | -27.34922 | 146.42290 | 18015 ft | 277 kts | 345° |
| 2026-05-04 05:02 | -27.33025 | 146.41931 | 18018 ft | 276 kts | 345° |
| 2026-05-04 05:03 | -27.31122 | 146.41573 | 18016 ft | 277 kts | 345° |
| 2026-05-04 05:03 | -27.29223 | 146.41215 | 18014 ft | 276 kts | 345° |
| 2026-05-04 05:04 | -27.23536 | 146.40143 | 18016 ft | 276 kts | 345° |
| 2026-05-04 05:04 | -27.21643 | 146.39787 | 18014 ft | 276 kts | 345° |
| 2026-05-04 05:04 | -27.19745 | 146.39430 | 18023 ft | 276 kts | 345° |
| 2026-05-04 05:06 | -27.06509 | 146.36941 | 18017 ft | 276 kts | 345° |
| 2026-05-04 05:06 | -27.04615 | 146.36586 | 18015 ft | 276 kts | 345° |
| 2026-05-04 05:06 | -27.02720 | 146.36230 | 18012 ft | 276 kts | 345° |
| 2026-05-04 05:07 | -27.00822 | 146.35874 | 18013 ft | 276 kts | 345° |
| 2026-05-04 05:07 | -26.98925 | 146.35518 | 18016 ft | 276 kts | 345° |
| 2026-05-04 05:07 | -26.97028 | 146.35163 | 18011 ft | 276 kts | 345° |
| 2026-05-04 05:09 | -26.81867 | 146.32325 | 18012 ft | 276 kts | 345° |
| 2026-05-04 05:09 | -26.79971 | 146.31970 | 18014 ft | 276 kts | 345° |
| 2026-05-04 05:10 | -26.78070 | 146.31615 | 18010 ft | 276 kts | 345° |
| 2026-05-04 05:10 | -26.76175 | 146.31261 | 18009 ft | 276 kts | 345° |
| 2026-05-04 05:10 | -26.74281 | 146.30908 | 18076 ft | 277 kts | 346° |
| 2026-05-04 05:10 | -26.72367 | 146.30550 | 18023 ft | 280 kts | 346° |
| 2026-05-04 05:11 | -26.70443 | 146.30191 | 18024 ft | 280 kts | 346° |
| 2026-05-04 05:11 | -26.68517 | 146.29832 | 18021 ft | 281 kts | 346° |
| 2026-05-04 05:11 | -26.66588 | 146.29473 | 18020 ft | 281 kts | 346° |
| 2026-05-04 05:11 | -26.64658 | 146.29112 | 18022 ft | 282 kts | 346° |
| 2026-05-04 05:12 | -26.62724 | 146.28753 | 18018 ft | 282 kts | 346° |
| 2026-05-04 05:12 | -26.60787 | 146.28392 | 18020 ft | 282 kts | 346° |
| 2026-05-04 05:12 | -26.58874 | 146.28036 | 18019 ft | 282 kts | 346° |
| 2026-05-04 05:12 | -26.56933 | 146.27674 | 18018 ft | 283 kts | 346° |
| 2026-05-04 05:13 | -26.54994 | 146.27314 | 18018 ft | 283 kts | 346° |
| 2026-05-04 05:13 | -26.53055 | 146.26952 | 18018 ft | 283 kts | 346° |
| 2026-05-04 05:13 | -26.51109 | 146.26592 | 18016 ft | 283 kts | 346° |
| 2026-05-04 05:13 | -26.49168 | 146.26230 | 18015 ft | 283 kts | 346° |
| 2026-05-04 05:14 | -26.47221 | 146.25869 | 18016 ft | 283 kts | 346° |
| 2026-05-04 05:14 | -26.45272 | 146.25506 | 18014 ft | 283 kts | 346° |
| 2026-05-04 05:14 | -26.43324 | 146.25144 | 18014 ft | 283 kts | 345° |
| 2026-05-04 05:14 | -26.41460 | 146.24532 | 18021 ft | 278 kts | 331° |
| 2026-05-04 05:15 | -26.39800 | 146.23458 | 18025 ft | 275 kts | 324° |
| 2026-05-04 05:15 | -26.38180 | 146.22315 | 18026 ft | 275 kts | 325° |
| 2026-05-04 05:15 | -26.36540 | 146.21211 | 18021 ft | 276 kts | 326° |
| 2026-05-04 05:15 | -26.34894 | 146.20114 | 18024 ft | 276 kts | 325° |
| 2026-05-04 05:16 | -26.33253 | 146.19011 | 18023 ft | 276 kts | 325° |
| 2026-05-04 05:16 | -26.31612 | 146.17904 | 18024 ft | 276 kts | 325° |
| 2026-05-04 05:16 | -26.29990 | 146.16814 | 18021 ft | 276 kts | 325° |
| 2026-05-04 05:16 | -26.28346 | 146.15709 | 18024 ft | 276 kts | 325° |
| 2026-05-04 05:17 | -26.26701 | 146.14604 | 18023 ft | 276 kts | 325° |
| 2026-05-04 05:17 | -26.25053 | 146.13497 | 18023 ft | 276 kts | 325° |
| 2026-05-04 05:17 | -26.23407 | 146.12392 | 18019 ft | 276 kts | 325° |
| 2026-05-04 05:17 | -26.21761 | 146.11287 | 18023 ft | 276 kts | 325° |
| 2026-05-04 05:18 | -26.20114 | 146.10182 | 18020 ft | 276 kts | 325° |
| 2026-05-04 05:18 | -26.18469 | 146.09078 | 18017 ft | 276 kts | 325° |
| 2026-05-04 05:18 | -26.16826 | 146.07977 | 18017 ft | 276 kts | 325° |
| 2026-05-04 05:18 | -26.15181 | 146.06873 | 18015 ft | 276 kts | 325° |
| 2026-05-04 05:19 | -26.13533 | 146.05770 | 18017 ft | 276 kts | 325° |
| 2026-05-04 05:19 | -26.11908 | 146.04680 | 18016 ft | 276 kts | 325° |
| 2026-05-04 05:19 | -26.10258 | 146.03577 | 18017 ft | 276 kts | 325° |
| 2026-05-04 05:19 | -26.08615 | 146.02476 | 18013 ft | 276 kts | 325° |
| 2026-05-04 05:20 | -26.06970 | 146.01375 | 18012 ft | 276 kts | 325° |
| 2026-05-04 05:20 | -26.05324 | 146.00273 | 18012 ft | 276 kts | 325° |
| 2026-05-04 05:20 | -26.03679 | 145.99174 | 18010 ft | 276 kts | 325° |
| 2026-05-04 05:20 | -26.02032 | 145.98072 | 18015 ft | 276 kts | 325° |
| 2026-05-04 05:21 | -26.00388 | 145.96974 | 18008 ft | 276 kts | 325° |
| 2026-05-04 05:21 | -25.98743 | 145.95874 | 18010 ft | 276 kts | 325° |
| 2026-05-04 05:21 | -25.97099 | 145.94777 | 18009 ft | 275 kts | 325° |
| 2026-05-04 05:21 | -25.95455 | 145.93678 | 18013 ft | 275 kts | 325° |
| 2026-05-04 05:22 | -25.93813 | 145.92583 | 18009 ft | 275 kts | 325° |
| 2026-05-04 05:22 | -25.92191 | 145.91501 | 18009 ft | 275 kts | 325° |
| 2026-05-04 05:22 | -25.90549 | 145.90406 | 18010 ft | 275 kts | 325° |
| 2026-05-04 05:22 | -25.88907 | 145.89310 | 18010 ft | 275 kts | 325° |
| 2026-05-04 05:23 | -25.87263 | 145.88215 | 18008 ft | 275 kts | 325° |
| 2026-05-04 05:23 | -25.85624 | 145.87122 | 18007 ft | 275 kts | 325° |
| 2026-05-04 05:23 | -25.83981 | 145.86028 | 18006 ft | 275 kts | 325° |
| 2026-05-04 05:23 | -25.82343 | 145.84937 | 18006 ft | 275 kts | 325° |
| 2026-05-04 05:24 | -25.80702 | 145.83844 | 18005 ft | 275 kts | 325° |
| 2026-05-04 05:24 | -25.79062 | 145.82753 | 18004 ft | 275 kts | 325° |
| 2026-05-04 05:24 | -25.77422 | 145.81662 | 18005 ft | 275 kts | 325° |
| 2026-05-04 05:24 | -25.75779 | 145.80569 | 18009 ft | 275 kts | 325° |
| 2026-05-04 05:25 | -25.74137 | 145.79477 | 18005 ft | 275 kts | 325° |
| 2026-05-04 05:25 | -25.72493 | 145.78385 | 18007 ft | 275 kts | 325° |
| 2026-05-04 05:25 | -25.70849 | 145.77293 | 18007 ft | 275 kts | 325° |
| 2026-05-04 05:25 | -25.69210 | 145.76203 | 18006 ft | 275 kts | 325° |
| 2026-05-04 05:26 | -25.67564 | 145.75112 | 18006 ft | 275 kts | 325° |
| 2026-05-04 05:26 | -25.65945 | 145.74036 | 18005 ft | 275 kts | 325° |
| 2026-05-04 05:26 | -25.64300 | 145.72945 | 18006 ft | 275 kts | 325° |
| 2026-05-04 05:26 | -25.62659 | 145.71855 | 18002 ft | 275 kts | 325° |
| 2026-05-04 05:27 | -25.61017 | 145.70767 | 18003 ft | 275 kts | 325° |
| 2026-05-04 05:28 | -25.49511 | 145.63147 | 17997 ft | 275 kts | 325° |
| 2026-05-04 05:29 | -25.47866 | 145.62058 | 17998 ft | 275 kts | 325° |
| 2026-05-04 05:29 | -25.46244 | 145.60986 | 17998 ft | 275 kts | 325° |
| 2026-05-04 05:29 | -25.44602 | 145.59901 | 17998 ft | 275 kts | 325° |
| 2026-05-04 05:29 | -25.42960 | 145.58817 | 17998 ft | 275 kts | 325° |
| 2026-05-04 05:31 | -25.31419 | 145.51200 | 17996 ft | 276 kts | 325° |
| 2026-05-04 05:31 | -25.29769 | 145.50112 | 17995 ft | 276 kts | 325° |
| 2026-05-04 05:32 | -25.28145 | 145.49042 | 17994 ft | 276 kts | 325° |
| 2026-05-04 05:32 | -25.26497 | 145.47956 | 17992 ft | 276 kts | 325° |
| 2026-05-04 05:32 | -25.24849 | 145.46871 | 17996 ft | 276 kts | 325° |
| 2026-05-04 05:33 | -25.21552 | 145.44700 | 17989 ft | 276 kts | 325° |
| 2026-05-04 05:33 | -25.19904 | 145.43616 | 17991 ft | 276 kts | 325° |
| 2026-05-04 05:33 | -25.18254 | 145.42531 | 17987 ft | 275 kts | 325° |
| 2026-05-04 05:33 | -25.16608 | 145.41451 | 17992 ft | 275 kts | 325° |
| 2026-05-04 05:34 | -25.14964 | 145.40369 | 17987 ft | 275 kts | 325° |
| 2026-05-04 05:34 | -25.13319 | 145.39289 | 17989 ft | 275 kts | 325° |
| 2026-05-04 05:34 | -25.11676 | 145.38210 | 17988 ft | 275 kts | 325° |
| 2026-05-04 05:34 | -25.10050 | 145.37142 | 17987 ft | 275 kts | 325° |
| 2026-05-04 05:35 | -25.08408 | 145.36064 | 17988 ft | 275 kts | 325° |
| 2026-05-04 05:35 | -25.06765 | 145.34987 | 17987 ft | 275 kts | 325° |
| 2026-05-04 05:35 | -25.05119 | 145.33906 | 17988 ft | 275 kts | 325° |
| 2026-05-04 05:35 | -25.03473 | 145.32828 | 17986 ft | 275 kts | 325° |
| 2026-05-04 05:36 | -25.01831 | 145.31751 | 17984 ft | 275 kts | 325° |
| 2026-05-04 05:36 | -25.00189 | 145.30681 | 17984 ft | 275 kts | 326° |
| 2026-05-04 05:36 | -24.98546 | 145.29604 | 17981 ft | 274 kts | 325° |
| 2026-05-04 05:36 | -24.96906 | 145.28523 | 17985 ft | 274 kts | 325° |
| 2026-05-04 05:37 | -24.95267 | 145.27448 | 17982 ft | 274 kts | 325° |
| 2026-05-04 05:37 | -24.93626 | 145.26375 | 17982 ft | 274 kts | 325° |
| 2026-05-04 05:37 | -24.91984 | 145.25301 | 17985 ft | 274 kts | 325° |
| 2026-05-04 05:38 | -24.88707 | 145.23159 | 17985 ft | 274 kts | 325° |
| 2026-05-04 05:38 | -24.87068 | 145.22088 | 17986 ft | 274 kts | 325° |
| 2026-05-04 05:38 | -24.85432 | 145.21018 | 17981 ft | 273 kts | 325° |
| 2026-05-04 05:38 | -24.83815 | 145.19963 | 17978 ft | 273 kts | 325° |
| 2026-05-04 05:39 | -24.82178 | 145.18893 | 17981 ft | 273 kts | 325° |
| 2026-05-04 05:39 | -24.78906 | 145.16756 | 17984 ft | 273 kts | 325° |
| 2026-05-04 05:39 | -24.77270 | 145.15691 | 17981 ft | 273 kts | 325° |
| 2026-05-04 05:40 | -24.73997 | 145.13559 | 17982 ft | 273 kts | 325° |
| 2026-05-04 05:40 | -24.72366 | 145.12495 | 17979 ft | 273 kts | 325° |
| 2026-05-04 05:40 | -24.70733 | 145.11429 | 17976 ft | 273 kts | 325° |
| 2026-05-04 05:41 | -24.69101 | 145.10363 | 17978 ft | 273 kts | 325° |
| 2026-05-04 05:41 | -24.67468 | 145.09295 | 17980 ft | 273 kts | 325° |
| 2026-05-04 05:41 | -24.65830 | 145.08231 | 17977 ft | 273 kts | 326° |
| 2026-05-04 05:41 | -24.64194 | 145.07170 | 17979 ft | 273 kts | 326° |
| 2026-05-04 05:42 | -24.62561 | 145.06108 | 17978 ft | 273 kts | 326° |
| 2026-05-04 05:42 | -24.60928 | 145.05042 | 17980 ft | 273 kts | 325° |
| 2026-05-04 05:42 | -24.59297 | 145.03979 | 17975 ft | 273 kts | 326° |
| 2026-05-04 05:42 | -24.57665 | 145.02916 | 17977 ft | 273 kts | 326° |
| 2026-05-04 05:43 | -24.56032 | 145.01854 | 17977 ft | 273 kts | 326° |
| 2026-05-04 05:43 | -24.54424 | 145.00805 | 17977 ft | 272 kts | 326° |
| 2026-05-04 05:43 | -24.52790 | 144.99743 | 17977 ft | 272 kts | 325° |
| 2026-05-04 05:45 | -24.41382 | 144.92326 | 17975 ft | 272 kts | 326° |
| 2026-05-04 05:45 | -24.39748 | 144.91266 | 17973 ft | 272 kts | 326° |
| 2026-05-04 05:47 | -24.28362 | 144.83883 | 17976 ft | 272 kts | 326° |
| 2026-05-04 05:47 | -24.26735 | 144.82828 | 17973 ft | 272 kts | 326° |
| 2026-05-04 05:47 | -24.25104 | 144.81774 | 17972 ft | 272 kts | 326° |
| 2026-05-04 05:48 | -24.23475 | 144.80718 | 17972 ft | 272 kts | 326° |
| 2026-05-04 05:48 | -24.21845 | 144.79662 | 17970 ft | 272 kts | 326° |
| 2026-05-04 05:48 | -24.20766 | 144.78964 | 17970 ft | 272 kts | 326° |
| 2026-05-04 05:48 | -24.19135 | 144.77911 | 17967 ft | 272 kts | 326° |
| 2026-05-04 05:49 | -24.17505 | 144.76857 | 17972 ft | 272 kts | 326° |
| 2026-05-04 05:49 | -24.15867 | 144.75815 | 17970 ft | 272 kts | 326° |
| 2026-05-04 05:49 | -24.14233 | 144.74776 | 17969 ft | 272 kts | 325° |
| 2026-05-04 05:49 | -24.12613 | 144.73703 | 17970 ft | 271 kts | 325° |
| 2026-05-04 05:51 | -24.00685 | 144.66019 | 15736 ft | 290 kts | 327° |
| 2026-05-04 05:51 | -23.98923 | 144.64883 | 15355 ft | 290 kts | 326° |
| 2026-05-04 05:52 | -23.97211 | 144.63752 | 14974 ft | 292 kts | 326° |
| 2026-05-04 05:52 | -23.95459 | 144.62620 | 14593 ft | 294 kts | 327° |
| 2026-05-04 05:52 | -23.93689 | 144.61492 | 14207 ft | 295 kts | 327° |
| 2026-05-04 05:52 | -23.91909 | 144.60347 | 13812 ft | 298 kts | 327° |
| 2026-05-04 05:53 | -23.90116 | 144.59195 | 13393 ft | 299 kts | 327° |
| 2026-05-04 05:54 | -23.77776 | 144.51268 | 10674 ft | 289 kts | 328° |
| 2026-05-04 05:55 | -23.76046 | 144.50161 | 10321 ft | 288 kts | 328° |
| 2026-05-04 05:55 | -23.74319 | 144.49050 | 9970 ft | 287 kts | 328° |
| 2026-05-04 05:55 | -23.72600 | 144.47937 | 9573 ft | 287 kts | 328° |
| 2026-05-04 05:55 | -23.70904 | 144.46848 | 9192 ft | 285 kts | 328° |
| 2026-05-04 05:56 | -23.69197 | 144.45758 | 8813 ft | 283 kts | 329° |
| 2026-05-04 05:56 | -23.67507 | 144.44683 | 8444 ft | 280 kts | 329° |
| 2026-05-04 05:56 | -23.65834 | 144.43616 | 8075 ft | 278 kts | 329° |
| 2026-05-04 05:56 | -23.64170 | 144.42551 | 7709 ft | 276 kts | 329° |
| 2026-05-04 05:57 | -23.62521 | 144.41488 | 7341 ft | 274 kts | 330° |
| 2026-05-04 05:57 | -23.60891 | 144.40419 | 6981 ft | 273 kts | 329° |
| 2026-05-04 05:57 | -23.59253 | 144.39369 | 6624 ft | 271 kts | 331° |
| 2026-05-04 05:57 | -23.57633 | 144.38363 | 6260 ft | 271 kts | 331° |
| 2026-05-04 05:58 | -23.56015 | 144.37331 | 5893 ft | 269 kts | 330° |
| 2026-05-04 05:58 | -23.54410 | 144.36298 | 5536 ft | 267 kts | 330° |
| 2026-05-04 05:58 | -23.52814 | 144.35280 | 5187 ft | 265 kts | 331° |
| 2026-05-04 05:58 | -23.51234 | 144.34273 | 4837 ft | 261 kts | 330° |
| 2026-05-04 05:59 | -23.49685 | 144.33282 | 4482 ft | 254 kts | 331° |
| 2026-05-04 05:59 | -23.48184 | 144.32325 | 4154 ft | 246 kts | 331° |
| 2026-05-04 05:59 | -23.46725 | 144.31392 | 3830 ft | 240 kts | 331° |
| 2026-05-04 05:59 | -23.45336 | 144.30506 | 3509 ft | 224 kts | 331° |
| 2026-05-04 06:00 | -23.44023 | 144.29669 | 3189 ft | 213 kts | 331° |
| 2026-05-04 06:00 | -23.42769 | 144.28870 | 2858 ft | 205 kts | 331° |
| 2026-05-04 06:00 | -23.41575 | 144.28078 | 2546 ft | 198 kts | 322° |
| 2026-05-04 06:00 | -23.40803 | 144.26856 | 2225 ft | 197 kts | 294° |
| 2026-05-04 06:01 | -23.40436 | 144.25440 | 1910 ft | 195 kts | 272° |
| 2026-05-04 06:01 | -23.40845 | 144.24085 | 1736 ft | 184 kts | 234° |
| 2026-05-04 06:03 | -23.45900 | 144.20704 | 1726 ft | 128 kts | 135° |
| 2026-05-04 06:03 | -23.46555 | 144.21357 | 1723 ft | 126 kts | 123° |
| 2026-05-04 06:05 | -23.44042 | 144.26776 | 717 ft | 100 kts | 45° |
| 2026-05-04 06:05 | -23.43179 | 144.27772 | 631 ft | 70 kts | 47° |
| 2026-05-04 06:05 | -23.43110 | 144.27859 | 637 ft | 8 kts | 169° |
| 2026-05-04 06:06 | -23.43163 | 144.27797 | 634 ft | 15 kts | 226° |
| 2026-05-04 06:06 | -23.43240 | 144.27710 | 634 ft | 17 kts | 227° |
| 2026-05-04 06:06 | -23.43321 | 144.27613 | 633 ft | 18 kts | 227° |
| 2026-05-04 06:06 | -23.43408 | 144.27515 | 630 ft | 18 kts | 226° |
| 2026-05-04 06:07 | -23.43494 | 144.27416 | 631 ft | 18 kts | 226° |
| 2026-05-04 06:07 | -23.43579 | 144.27320 | 635 ft | 18 kts | 228° |
| 2026-05-04 06:07 | -23.43663 | 144.27223 | 632 ft | 17 kts | 227° |
| 2026-05-04 06:07 | -23.43715 | 144.27161 | 633 ft | 11 kts | 227° |
| 2026-05-04 06:08 | -23.43773 | 144.27142 | 638 ft | 8 kts | 162° |
| 2026-05-04 06:08 | -23.43827 | 144.27143 | 632 ft | 2 kts | 183° |
| 2026-05-04 06:08 | -23.43855 | 144.27144 | 632 ft | 4 kts | 152° |
| 2026-05-04 06:08 | -23.43866 | 144.27166 | 633 ft | 4 kts | 109° |
| 2026-05-04 06:09 | -23.43873 | 144.27172 | 633 ft | 0 kts | 171° |
| 2026-05-04 06:09 | -23.43877 | 144.27172 | 634 ft | 0 kts | 199° |